Time;durP1;ratioP1;P1;durP2;ratioP2;P2;SDS_P1;SDS_P2;PMS_P1;PMS_P2;Temp;Humidity;BMP_temperature;BMP_pressure;BME280_temperature;BME280_humidity;BME280_pressure;Samples;Min_cycle;Max_cycle;Signal;HPM_P1;HPM_P2
2022/03/06 00:01:05;;;;;;;38.53;20.83;;;-0.70;99.90;;;;;;5054379;28;20029;-72
2022/03/06 00:03:31;;;;;;;39.20;19.33;;;-0.80;99.90;;;;;;5055369;28;20021;-72
2022/03/06 00:05:56;;;;;;;36.42;19.20;;;-0.70;99.90;;;;;;5055479;28;20036;-72
2022/03/06 00:08:22;;;;;;;40.15;19.98;;;-0.70;99.90;;;;;;5054097;28;20037;-71
2022/03/06 00:10:48;;;;;;;34.75;19.20;;;-0.80;99.90;;;;;;5055258;28;20091;-71
2022/03/06 00:13:15;;;;;;;33.67;19.17;;;-0.70;99.90;;;;;;5054066;28;20486;-71
2022/03/06 00:15:42;;;;;;;38.88;20.20;;;-0.40;99.90;;;;;;5055233;28;20036;-72
2022/03/06 00:18:07;;;;;;;38.15;19.63;;;-0.30;99.90;;;;;;5054923;28;20410;-71
2022/03/06 00:20:33;;;;;;;41.85;21.23;;;-0.30;99.90;;;;;;5055156;28;20024;-71
2022/03/06 00:22:59;;;;;;;38.15;19.23;;;-0.20;99.90;;;;;;5055084;28;20029;-71
2022/03/06 00:25:24;;;;;;;35.67;18.63;;;-0.10;99.90;;;;;;5054997;28;20441;-71
2022/03/06 00:27:50;;;;;;;39.83;18.63;;;0.00;99.90;;;;;;5053844;28;20036;-71
2022/03/06 00:30:15;;;;;;;38.67;19.42;;;-0.10;99.90;;;;;;5053650;28;20471;-71
2022/03/06 00:32:41;;;;;;;39.00;19.33;;;-0.30;99.90;;;;;;5054869;28;20025;-72
2022/03/06 00:35:07;;;;;;;36.05;19.40;;;-0.30;99.90;;;;;;5054815;28;20028;-71
2022/03/06 00:37:33;;;;;;;35.75;18.73;;;-0.20;99.90;;;;;;5036850;28;20111;-72
2022/03/06 00:39:58;;;;;;;38.40;19.27;;;0.00;99.90;;;;;;5054682;28;20115;-71
2022/03/06 00:42:24;;;;;;;31.83;18.23;;;0.10;99.90;;;;;;5054682;28;20063;-72
2022/03/06 00:44:51;;;;;;;34.35;17.90;;;0.00;99.90;;;;;;5054577;28;20021;-71
2022/03/06 00:47:16;;;;;;;35.35;19.10;;;-0.10;99.90;;;;;;5053413;28;20052;-72
2022/03/06 00:49:42;;;;;;;34.70;18.42;;;-0.10;99.90;;;;;;5053269;28;20075;-71
2022/03/06 00:52:07;;;;;;;37.60;18.98;;;0.00;99.90;;;;;;5054498;28;20052;-71
2022/03/06 00:54:33;;;;;;;36.25;19.83;;;-0.10;99.90;;;;;;5054462;28;20454;-71
2022/03/06 00:56:58;;;;;;;34.75;18.63;;;-0.30;99.90;;;;;;5053316;28;20107;-71
2022/03/06 00:59:24;;;;;;;35.33;17.77;;;-0.40;99.90;;;;;;5052989;28;20028;-71
2022/03/06 01:01:49;;;;;;;43.92;20.90;;;-0.50;99.90;;;;;;5054270;28;20029;-70
2022/03/06 01:04:15;;;;;;;39.50;20.08;;;-0.70;99.90;;;;;;5053496;28;20116;-71
2022/03/06 01:06:40;;;;;;;37.60;19.50;;;-0.80;99.90;;;;;;5054247;28;20021;-71
2022/03/06 01:09:06;;;;;;;34.20;19.65;;;-0.80;99.90;;;;;;5054201;28;20375;-71
2022/03/06 01:11:34;;;;;;;40.08;20.08;;;-0.90;99.90;;;;;;5054213;28;20033;-71
2022/03/06 01:14:00;;;;;;;41.95;21.15;;;-0.90;99.90;;;;;;5054123;28;20390;-71
2022/03/06 01:16:25;;;;;;;35.70;20.17;;;-1.00;99.90;;;;;;5054027;28;20036;-71
2022/03/06 01:18:51;;;;;;;36.35;20.13;;;-1.10;99.90;;;;;;5053683;28;20048;-71
2022/03/06 01:21:16;;;;;;;33.00;17.95;;;-1.20;99.90;;;;;;5052638;28;20032;-71
2022/03/06 01:23:42;;;;;;;38.40;19.63;;;-1.20;99.90;;;;;;5052635;28;20410;-72
2022/03/06 01:26:08;;;;;;;35.83;19.50;;;-1.30;99.90;;;;;;5036021;28;20021;-72
2022/03/06 01:28:34;;;;;;;43.15;20.73;;;-1.30;99.90;;;;;;5052526;28;20544;-72
2022/03/06 01:30:59;;;;;;;41.42;20.27;;;-1.30;99.90;;;;;;5053817;28;20117;-71
2022/03/06 01:33:25;;;;;;;38.40;20.95;;;-1.40;99.90;;;;;;5053699;28;20028;-72
2022/03/06 01:35:50;;;;;;;39.83;20.13;;;-1.40;99.90;;;;;;5053615;28;20529;-72
2022/03/06 01:38:16;;;;;;;40.25;21.17;;;-1.40;99.90;;;;;;5053544;28;20090;-71
2022/03/06 01:40:42;;;;;;;36.92;19.60;;;-1.40;99.90;;;;;;5053552;28;20024;-71
2022/03/06 01:43:07;;;;;;;37.72;19.10;;;-1.40;99.90;;;;;;5052273;28;20021;-71
2022/03/06 01:45:33;;;;;;;41.78;19.85;;;-1.40;99.90;;;;;;5052282;28;20021;-72
2022/03/06 01:47:59;;;;;;;40.80;21.30;;;-1.40;99.90;;;;;;5052368;28;20495;-71
2022/03/06 01:50:27;;;;;;;37.55;19.45;;;-1.40;99.90;;;;;;5053466;28;20027;-71
2022/03/06 01:52:55;;;;;;;35.78;18.92;;;-1.40;99.90;;;;;;5052226;28;20108;-71
2022/03/06 01:55:24;;;;;;;39.90;19.42;;;-1.40;99.90;;;;;;5053404;28;20485;-71
2022/03/06 01:57:51;;;;;;;35.55;19.83;;;-1.30;99.90;;;;;;5035883;28;20029;-71
2022/03/06 02:00:20;;;;;;;36.97;18.98;;;-1.30;99.90;;;;;;5053203;28;20025;-72
2022/03/06 02:02:47;;;;;;;36.15;18.35;;;-1.30;99.90;;;;;;5053273;28;20391;-72
2022/03/06 02:05:13;;;;;;;38.42;19.48;;;-1.20;99.90;;;;;;5053255;28;20029;-72
2022/03/06 02:07:38;;;;;;;41.95;21.40;;;-1.20;99.90;;;;;;5052335;28;20080;-72
2022/03/06 02:10:06;;;;;;;36.22;19.90;;;-1.10;99.90;;;;;;5053123;28;20029;-72
2022/03/06 02:12:32;;;;;;;35.58;19.42;;;-1.10;99.90;;;;;;5053177;28;20477;-71
2022/03/06 02:15:00;;;;;;;38.60;20.75;;;-1.00;99.90;;;;;;5052931;28;20017;-71
2022/03/06 02:17:26;;;;;;;39.80;19.95;;;-1.00;99.90;;;;;;5053070;28;20391;-71
2022/03/06 02:22:31;;;;;;;40.17;21.92;;;-1.00;99.90;;;;;;5111272;27;20174;-71
2022/03/06 02:24:58;;;;;;;42.25;21.17;;;-1.00;99.90;;;;;;5111183;28;20371;-70
2022/03/06 02:27:24;;;;;;;39.10;20.42;;;-1.00;99.90;;;;;;5109847;28;20020;-70
2022/03/06 02:29:50;;;;;;;38.53;21.55;;;-0.90;99.90;;;;;;5109717;28;20089;-70
2022/03/06 02:32:19;;;;;;;35.22;20.70;;;-0.80;99.90;;;;;;5109762;28;20028;-71
2022/03/06 02:34:47;;;;;;;35.00;19.92;;;-0.80;99.90;;;;;;5110945;28;20049;-70
2022/03/06 02:37:14;;;;;;;41.58;21.13;;;-0.80;99.90;;;;;;5109568;28;20398;-71
2022/03/06 02:39:43;;;;;;;34.00;19.98;;;-0.80;99.90;;;;;;5111064;28;20034;-71
2022/03/06 02:42:10;;;;;;;40.80;20.38;;;-0.80;99.90;;;;;;5109534;28;20030;-71
2022/03/06 02:44:36;;;;;;;40.25;20.88;;;-0.80;99.90;;;;;;5110814;28;20043;-71
2022/03/06 02:47:02;;;;;;;35.28;19.35;;;-0.80;99.90;;;;;;5109420;28;20016;-71
2022/03/06 02:49:28;;;;;;;39.88;21.48;;;-0.80;99.90;;;;;;5110756;28;20393;-71
2022/03/06 02:51:53;;;;;;;38.90;20.25;;;-0.50;99.90;;;;;;5092350;28;20015;-70
2022/03/06 02:54:20;;;;;;;37.25;19.55;;;-0.30;99.90;;;;;;5109264;28;20389;-70
2022/03/06 02:56:46;;;;;;;37.78;19.58;;;-0.10;99.90;;;;;;5109422;28;20027;-70
2022/03/06 02:59:12;;;;;;;42.38;20.80;;;0.00;99.90;;;;;;5110829;28;20077;-70
2022/03/06 03:01:41;;;;;;;34.88;18.38;;;0.00;99.90;;;;;;5110427;28;20473;-70
2022/03/06 03:04:08;;;;;;;34.72;18.33;;;0.00;99.90;;;;;;5110395;28;20030;-70
2022/03/06 03:06:34;;;;;;;33.40;18.85;;;0.10;99.90;;;;;;5109154;28;20068;-71
2022/03/06 03:08:59;;;;;;;32.88;19.38;;;0.10;99.90;;;;;;5110354;28;20028;-70
2022/03/06 03:11:25;;;;;;;32.38;18.45;;;0.00;99.90;;;;;;5109039;28;20032;-71
2022/03/06 03:13:51;;;;;;;35.40;18.90;;;-0.10;99.90;;;;;;5110151;28;20469;-71
2022/03/06 03:16:18;;;;;;;33.25;18.90;;;-0.10;99.90;;;;;;5110079;28;20024;-70
2022/03/06 03:18:43;;;;;;;38.30;19.58;;;-0.20;99.90;;;;;;5108797;28;20020;-71
2022/03/06 03:21:09;;;;;;;39.38;19.55;;;-0.20;99.90;;;;;;5109716;28;20055;-70
2022/03/06 03:23:34;;;;;;;34.20;17.90;;;-0.20;99.90;;;;;;5110008;28;20575;-71
2022/03/06 03:26:00;;;;;;;33.85;19.00;;;-0.30;99.90;;;;;;5109973;28;20027;-70
2022/03/06 03:28:25;;;;;;;33.55;18.50;;;-0.30;99.90;;;;;;5109887;28;20489;-70
2022/03/06 03:30:51;;;;;;;35.20;19.73;;;-0.40;99.90;;;;;;5109779;28;20412;-71
2022/03/06 03:33:16;;;;;;;39.05;18.77;;;-0.40;99.90;;;;;;5099427;28;20016;-71
2022/03/06 03:35:42;;;;;;;32.90;18.60;;;-0.40;99.90;;;;;;5094992;28;20036;-71
2022/03/06 03:38:07;;;;;;;37.08;18.17;;;-0.50;99.90;;;;;;5096116;28;20414;-71
2022/03/06 03:40:33;;;;;;;37.25;20.55;;;-0.60;99.90;;;;;;5096007;28;20470;-71
2022/03/06 03:42:59;;;;;;;39.38;20.40;;;-0.70;99.90;;;;;;5096157;28;20066;-70
2022/03/06 03:45:24;;;;;;;37.22;19.48;;;-0.80;99.90;;;;;;5095940;28;20024;-71
2022/03/06 03:47:50;;;;;;;41.38;20.45;;;-0.80;99.90;;;;;;5095889;28;20032;-70
2022/03/06 03:50:15;;;;;;;36.88;19.85;;;-0.80;99.90;;;;;;5094615;28;20371;-71
2022/03/06 03:52:41;;;;;;;37.38;20.42;;;-0.90;99.90;;;;;;5094680;28;20032;-71
2022/03/06 03:55:07;;;;;;;38.28;20.15;;;-0.90;99.90;;;;;;5094600;28;20028;-70
2022/03/06 03:57:33;;;;;;;36.78;20.00;;;-1.00;99.90;;;;;;5077769;28;20024;-71
2022/03/06 03:59:58;;;;;;;43.05;20.88;;;-1.00;99.90;;;;;;5095803;28;20024;-70
2022/03/06 04:02:24;;;;;;;40.25;20.85;;;-1.10;99.90;;;;;;5077474;28;20118;-71
2022/03/06 04:04:50;;;;;;;44.63;21.67;;;-1.00;99.90;;;;;;5095596;28;20020;-70
2022/03/06 04:07:16;;;;;;;41.38;22.15;;;-1.00;99.90;;;;;;5095626;28;20074;-71
2022/03/06 04:09:41;;;;;;;41.00;21.63;;;-0.90;99.90;;;;;;5077395;28;20020;-70
2022/03/06 04:12:08;;;;;;;42.67;20.70;;;-0.70;99.90;;;;;;5095554;28;20538;-70
2022/03/06 04:14:33;;;;;;;44.60;21.05;;;-0.70;99.90;;;;;;5095452;28;20024;-70
2022/03/06 04:16:59;;;;;;;38.92;20.65;;;-0.60;99.90;;;;;;5095428;28;20474;-71
2022/03/06 04:19:24;;;;;;;35.75;20.13;;;-0.70;99.90;;;;;;5095270;28;20024;-71
2022/03/06 04:21:50;;;;;;;35.65;19.80;;;-0.70;99.90;;;;;;5095101;28;20048;-71
2022/03/06 04:24:15;;;;;;;37.05;20.17;;;-0.70;99.90;;;;;;5095318;28;20039;-71
2022/03/06 04:26:41;;;;;;;37.25;20.02;;;-0.80;99.90;;;;;;5095210;28;20016;-70
2022/03/06 04:29:06;;;;;;;32.42;18.75;;;-0.80;99.90;;;;;;5095186;28;20024;-70
2022/03/06 04:31:32;;;;;;;35.30;19.58;;;-0.90;99.90;;;;;;5095159;28;20024;-70
2022/03/06 04:33:58;;;;;;;39.50;20.73;;;-1.00;99.90;;;;;;5094017;28;20035;-70
2022/03/06 04:36:24;;;;;;;38.42;19.35;;;-1.00;99.90;;;;;;5093726;28;20051;-70
2022/03/06 04:38:50;;;;;;;36.72;20.23;;;-1.10;99.90;;;;;;5094979;28;20394;-70
2022/03/06 04:41:16;;;;;;;38.85;20.52;;;-1.20;99.90;;;;;;5094872;28;20161;-71
2022/03/06 04:43:41;;;;;;;41.00;21.73;;;-1.20;99.90;;;;;;5094198;28;20016;-71
2022/03/06 04:46:07;;;;;;;40.97;20.95;;;-1.30;99.90;;;;;;5094554;28;20032;-71
2022/03/06 04:48:32;;;;;;;41.33;21.83;;;-1.40;99.90;;;;;;5093895;28;20550;-70
2022/03/06 04:50:58;;;;;;;39.00;21.23;;;-1.40;99.90;;;;;;5094677;28;20500;-71
2022/03/06 04:53:23;;;;;;;35.83;19.88;;;-1.50;99.90;;;;;;5094673;28;20028;-71
2022/03/06 04:55:49;;;;;;;37.25;20.08;;;-1.60;99.90;;;;;;5076544;28;20074;-71
2022/03/06 04:58:14;;;;;;;41.92;21.80;;;-1.70;99.90;;;;;;5093299;28;20406;-71
2022/03/06 05:00:40;;;;;;;40.05;21.92;;;-1.70;99.90;;;;;;5094423;28;20059;-71
2022/03/06 05:03:05;;;;;;;42.08;21.70;;;-1.70;99.90;;;;;;5076343;28;20024;-71
2022/03/06 05:05:31;;;;;;;41.08;22.88;;;-1.70;99.90;;;;;;5076314;28;20397;-71
2022/03/06 05:07:56;;;;;;;43.63;21.70;;;-1.70;99.90;;;;;;5076233;28;20107;-70
2022/03/06 05:10:22;;;;;;;38.72;20.73;;;-1.80;99.90;;;;;;5093186;28;20020;-71
2022/03/06 05:12:48;;;;;;;39.90;21.70;;;-1.90;99.90;;;;;;5093081;28;20029;-71
2022/03/06 05:15:14;;;;;;;41.63;21.65;;;-1.90;99.90;;;;;;5094307;28;20474;-70
2022/03/06 05:17:40;;;;;;;43.42;21.65;;;-2.00;99.90;;;;;;5092962;28;20016;-71
2022/03/06 05:20:07;;;;;;;38.22;20.95;;;-2.10;99.90;;;;;;5092770;28;20112;-70
2022/03/06 05:22:33;;;;;;;46.63;22.38;;;-2.10;99.90;;;;;;5092862;28;20027;-71
2022/03/06 05:24:59;;;;;;;39.78;21.70;;;-2.20;99.90;;;;;;5094360;28;20020;-71
2022/03/06 05:27:25;;;;;;;46.42;21.77;;;-2.20;99.90;;;;;;5092897;28;20100;-70
2022/03/06 05:29:51;;;;;;;43.67;21.52;;;-2.30;99.90;;;;;;5092781;28;20020;-71
2022/03/06 05:32:16;;;;;;;43.53;23.42;;;-2.30;99.90;;;;;;5094004;28;20032;-70
2022/03/06 05:34:42;;;;;;;44.38;21.75;;;-2.40;99.90;;;;;;5092583;28;20021;-71
2022/03/06 05:37:07;;;;;;;43.67;22.42;;;-2.40;99.90;;;;;;5093917;28;20032;-71
2022/03/06 05:39:33;;;;;;;44.90;22.25;;;-2.50;99.90;;;;;;5093864;28;20020;-71
2022/03/06 05:41:59;;;;;;;40.40;22.95;;;-2.50;99.90;;;;;;5093709;28;20056;-70
2022/03/06 05:44:24;;;;;;;46.38;23.25;;;-2.50;99.90;;;;;;5093722;28;20387;-71
2022/03/06 05:46:50;;;;;;;41.80;21.25;;;-2.60;99.90;;;;;;5093767;28;20024;-71
2022/03/06 05:49:16;;;;;;;42.88;21.55;;;-2.60;99.90;;;;;;5093710;28;20020;-71
2022/03/06 05:51:42;;;;;;;41.67;21.67;;;-2.60;99.90;;;;;;5093633;28;20103;-70
2022/03/06 05:54:09;;;;;;;38.83;20.85;;;-2.60;99.90;;;;;;5093644;28;20367;-70
2022/03/06 05:56:35;;;;;;;42.65;21.40;;;-2.70;99.90;;;;;;5092011;28;20028;-71
2022/03/06 05:59:03;;;;;;;46.88;22.52;;;-2.70;99.90;;;;;;5092381;28;20032;-70
2022/03/06 06:01:30;;;;;;;41.53;21.83;;;-2.70;99.90;;;;;;5092165;28;20024;-70
2022/03/06 06:03:56;;;;;;;39.25;21.10;;;-2.70;99.90;;;;;;5093448;28;20012;-71
2022/03/06 06:06:23;;;;;;;43.08;22.15;;;-2.70;99.90;;;;;;5092169;28;20394;-71
2022/03/06 06:08:49;;;;;;;44.25;21.95;;;-2.60;99.90;;;;;;5092263;28;20020;-70
2022/03/06 06:11:15;;;;;;;41.45;21.60;;;-2.60;99.90;;;;;;5092254;28;20390;-70
2022/03/06 06:13:40;;;;;;;40.30;22.40;;;-2.50;99.90;;;;;;5092076;28;20038;-71
2022/03/06 06:16:06;;;;;;;41.70;21.75;;;-2.50;99.90;;;;;;5093407;28;20103;-70
2022/03/06 06:18:31;;;;;;;40.90;22.23;;;-2.40;99.90;;;;;;5092003;28;20028;-70
2022/03/06 06:20:58;;;;;;;42.60;21.17;;;-2.30;99.90;;;;;;5092972;28;20048;-70
2022/03/06 06:23:23;;;;;;;41.08;22.27;;;-2.20;99.90;;;;;;5093237;28;20511;-71
2022/03/06 06:25:49;;;;;;;43.30;21.27;;;-2.10;99.90;;;;;;5093249;28;20028;-70
2022/03/06 06:28:15;;;;;;;38.00;20.50;;;-2.10;99.90;;;;;;5091868;28;20024;-71
2022/03/06 06:30:40;;;;;;;40.30;22.73;;;-2.00;99.90;;;;;;5091910;28;20424;-70
2022/03/06 06:33:06;;;;;;;43.65;22.65;;;-1.80;99.90;;;;;;5075126;28;20035;-71
2022/03/06 06:35:32;;;;;;;48.78;24.48;;;-1.70;99.90;;;;;;5092067;28;20451;-71
2022/03/06 06:37:58;;;;;;;46.17;23.35;;;-1.60;99.90;;;;;;5091968;28;20070;-70
2022/03/06 06:40:24;;;;;;;46.38;23.52;;;-1.50;99.90;;;;;;5091673;28;20028;-70
2022/03/06 06:42:49;;;;;;;49.15;24.27;;;-1.30;99.90;;;;;;5091793;28;20054;-70
2022/03/06 06:45:15;;;;;;;42.10;22.55;;;-0.90;99.90;;;;;;5093078;28;20035;-70
2022/03/06 06:47:40;;;;;;;37.13;21.42;;;0.10;99.90;;;;;;5093049;28;20031;-71
2022/03/06 06:50:06;;;;;;;34.30;19.13;;;1.30;99.90;;;;;;5092958;28;20469;-71
2022/03/06 06:52:32;;;;;;;33.88;19.88;;;2.40;99.90;;;;;;5093241;28;20024;-71
2022/03/06 06:54:57;;;;;;;29.52;17.45;;;3.20;99.90;;;;;;5093085;28;20035;-71
2022/03/06 06:57:23;;;;;;;26.13;16.63;;;4.00;99.90;;;;;;5091731;28;20375;-71
2022/03/06 06:59:48;;;;;;;29.67;17.77;;;4.70;99.90;;;;;;5092948;28;20031;-71
2022/03/06 07:02:14;;;;;;;27.10;17.40;;;5.20;99.90;;;;;;5091556;28;20086;-71
2022/03/06 07:04:39;;;;;;;28.70;18.40;;;5.40;99.90;;;;;;5091646;28;20025;-71
2022/03/06 07:07:05;;;;;;;25.05;17.80;;;5.70;99.90;;;;;;5093105;28;20020;-72
2022/03/06 07:09:30;;;;;;;24.23;16.77;;;6.00;99.90;;;;;;5078425;28;20024;-71
2022/03/06 07:11:56;;;;;;;26.15;17.45;;;5.90;99.90;;;;;;5095468;28;20032;-71
2022/03/06 07:14:21;;;;;;;22.98;17.02;;;6.40;99.90;;;;;;5096577;28;20031;-71
2022/03/06 07:16:47;;;;;;;26.90;17.27;;;6.90;99.90;;;;;;5095436;28;20020;-72
2022/03/06 07:19:13;;;;;;;23.20;17.08;;;6.90;99.90;;;;;;5096532;28;20063;-72
2022/03/06 07:21:38;;;;;;;23.52;17.02;;;7.20;99.90;;;;;;5096280;28;20040;-71
2022/03/06 07:24:06;;;;;;;24.00;17.10;;;7.50;99.90;;;;;;5096544;28;20024;-72
2022/03/06 07:26:31;;;;;;;26.52;18.40;;;7.70;99.90;;;;;;5096451;28;20047;-72
2022/03/06 07:28:57;;;;;;;23.85;17.48;;;7.50;99.90;;;;;;5095143;28;20474;-72
2022/03/06 07:31:22;;;;;;;23.58;17.25;;;7.70;99.90;;;;;;5095069;28;20046;-72
2022/03/06 07:33:48;;;;;;;23.20;16.83;;;8.00;98.30;;;;;;5078054;28;20024;-71
2022/03/06 07:36:13;;;;;;;23.92;17.00;;;7.10;96.90;;;;;;5096270;28;20052;-71
2022/03/06 07:38:39;;;;;;;25.58;17.33;;;6.90;99.90;;;;;;5096127;28;20086;-71
2022/03/06 07:41:05;;;;;;;21.25;15.30;;;7.40;99.20;;;;;;5077947;28;20397;-71
2022/03/06 07:43:30;;;;;;;21.13;16.70;;;6.80;99.00;;;;;;5096052;28;20024;-71
2022/03/06 07:45:56;;;;;;;22.98;16.70;;;6.40;99.90;;;;;;5096035;28;20035;-71
2022/03/06 07:48:22;;;;;;;25.75;17.80;;;6.60;99.90;;;;;;5095982;28;20069;-71
2022/03/06 07:50:48;;;;;;;23.10;16.85;;;7.10;99.90;;;;;;5095964;28;20028;-71
2022/03/06 07:53:14;;;;;;;26.42;17.23;;;7.30;98.60;;;;;;5094557;28;20024;-71
2022/03/06 07:55:39;;;;;;;24.02;17.23;;;7.70;96.80;;;;;;5095810;28;20050;-71
2022/03/06 07:58:05;;;;;;;23.23;16.42;;;8.70;96.20;;;;;;5094784;28;20020;-71
2022/03/06 08:00:30;;;;;;;23.20;16.65;;;7.40;94.80;;;;;;5094407;28;20032;-71
2022/03/06 08:02:56;;;;;;;22.55;16.27;;;7.00;96.50;;;;;;5094500;28;20024;-71
2022/03/06 08:05:22;;;;;;;23.33;16.48;;;7.10;97.80;;;;;;5094475;28;20024;-71
2022/03/06 08:07:47;;;;;;;23.35;17.20;;;7.80;94.80;;;;;;5095668;28;20031;-71
2022/03/06 08:10:13;;;;;;;22.10;14.85;;;8.60;94.60;;;;;;5094248;28;20047;-71
2022/03/06 08:12:40;;;;;;;22.35;16.55;;;8.40;91.70;;;;;;5095583;28;20024;-71
2022/03/06 08:15:08;;;;;;;22.20;15.60;;;8.20;90.60;;;;;;5094367;28;20045;-71
2022/03/06 08:17:34;;;;;;;23.13;16.10;;;7.40;94.60;;;;;;5095487;28;20031;-71
2022/03/06 08:19:59;;;;;;;25.38;17.13;;;6.90;96.20;;;;;;5094077;28;20020;-71
2022/03/06 08:22:25;;;;;;;22.38;15.13;;;7.00;95.80;;;;;;5094944;28;20456;-70
2022/03/06 08:24:51;;;;;;;26.05;16.52;;;6.60;97.10;;;;;;5093919;28;20140;-70
2022/03/06 08:27:16;;;;;;;23.20;16.35;;;7.00;97.70;;;;;;5094090;28;20039;-71
2022/03/06 08:29:42;;;;;;;22.17;15.93;;;7.40;97.20;;;;;;5095178;28;20016;-71
2022/03/06 08:32:08;;;;;;;24.23;16.95;;;8.10;95.30;;;;;;5093853;28;20032;-71
2022/03/06 08:34:34;;;;;;;22.30;16.00;;;7.60;95.50;;;;;;5095126;28;20028;-70
2022/03/06 08:36:59;;;;;;;27.23;17.40;;;6.60;96.50;;;;;;5093732;28;20550;-71
2022/03/06 08:39:25;;;;;;;25.92;17.25;;;7.10;98.40;;;;;;5094948;28;20032;-71
2022/03/06 08:41:51;;;;;;;23.13;17.25;;;7.80;97.10;;;;;;5094815;28;20032;-71
2022/03/06 08:44:16;;;;;;;24.13;17.05;;;8.00;95.30;;;;;;5093608;28;20050;-71
2022/03/06 08:46:42;;;;;;;26.85;17.80;;;8.90;93.00;;;;;;5094799;28;20031;-71
2022/03/06 08:49:07;;;;;;;24.83;17.55;;;8.80;92.10;;;;;;5094826;28;20436;-71
2022/03/06 08:51:35;;;;;;;24.58;17.90;;;8.40;91.80;;;;;;5094796;28;20058;-71
2022/03/06 08:54:00;;;;;;;24.52;17.95;;;9.10;92.30;;;;;;5094704;28;20034;-71
2022/03/06 08:56:26;;;;;;;25.88;18.67;;;9.30;90.10;;;;;;5094659;28;20031;-71
2022/03/06 08:58:52;;;;;;;28.08;18.55;;;8.10;94.00;;;;;;5093288;28;20046;-71
2022/03/06 09:01:17;;;;;;;26.15;18.38;;;7.80;94.30;;;;;;5093268;28;20028;-71
2022/03/06 09:03:43;;;;;;;24.40;16.50;;;7.40;96.10;;;;;;5094452;28;20043;-71
2022/03/06 09:06:08;;;;;;;22.00;16.25;;;8.50;93.50;;;;;;5094437;28;20065;-71
2022/03/06 09:08:34;;;;;;;21.23;16.15;;;9.20;91.10;;;;;;5094383;28;20020;-71
2022/03/06 09:10:59;;;;;;;21.25;16.15;;;8.00;93.00;;;;;;5093332;28;20056;-71
2022/03/06 09:13:25;;;;;;;22.05;16.65;;;8.40;92.70;;;;;;5093070;28;20024;-72
2022/03/06 09:15:50;;;;;;;21.95;16.55;;;7.80;95.20;;;;;;5094237;28;20111;-71
2022/03/06 09:18:16;;;;;;;23.17;16.65;;;8.70;92.10;;;;;;5094145;28;20028;-71
2022/03/06 09:20:42;;;;;;;25.42;17.55;;;8.40;91.50;;;;;;5093908;28;20071;-70
2022/03/06 09:23:09;;;;;;;24.77;17.80;;;7.40;95.50;;;;;;5092840;28;20089;-71
2022/03/06 09:25:34;;;;;;;25.35;16.98;;;8.30;95.00;;;;;;5092947;28;20386;-71
2022/03/06 09:28:01;;;;;;;22.05;16.25;;;9.50;91.60;;;;;;5075861;28;20020;-71
2022/03/06 09:30:27;;;;;;;22.42;17.13;;;9.60;90.70;;;;;;5092260;28;20020;-71
2022/03/06 09:32:52;;;;;;;23.45;17.20;;;9.00;90.90;;;;;;5092606;28;20034;-70
2022/03/06 09:35:18;;;;;;;24.77;18.25;;;8.10;94.00;;;;;;5093976;28;20393;-71
2022/03/06 09:37:43;;;;;;;22.90;17.45;;;9.20;94.60;;;;;;5093899;28;20090;-71
2022/03/06 09:40:10;;;;;;;22.27;16.40;;;9.40;91.30;;;;;;5092791;28;20020;-71
2022/03/06 09:42:36;;;;;;;23.77;17.35;;;9.90;86.80;;;;;;5092865;28;20115;-70
2022/03/06 09:45:04;;;;;;;21.60;17.17;;;9.90;90.00;;;;;;5093755;28;20494;-71
2022/03/06 09:47:30;;;;;;;23.55;17.98;;;9.90;89.40;;;;;;5094033;28;20016;-71
2022/03/06 09:49:56;;;;;;;23.23;17.00;;;9.70;85.10;;;;;;5092457;28;20020;-71
2022/03/06 09:52:21;;;;;;;24.23;18.40;;;9.50;90.30;;;;;;5092482;28;20359;-71
2022/03/06 09:54:47;;;;;;;23.48;18.05;;;9.50;86.90;;;;;;5093658;28;20020;-70
2022/03/06 09:57:18;;;;;;;27.65;19.08;;;8.50;89.20;;;;;;5093619;28;20039;-70
2022/03/06 09:59:44;;;;;;;29.10;19.08;;;8.90;90.80;;;;;;5093549;28;20478;-71
2022/03/06 10:02:11;;;;;;;24.30;18.08;;;9.70;89.00;;;;;;5093562;28;20031;-71
2022/03/06 10:04:37;;;;;;;23.13;18.70;;;9.90;79.90;;;;;;5075409;28;20024;-71
2022/03/06 10:09:46;;;;;;;27.63;20.05;;;9.00;83.70;;;;;;5111185;27;20347;-71
2022/03/06 10:12:31;;;;;;;26.98;19.95;;;8.50;86.20;;;;;;5111079;28;20036;-71
2022/03/06 10:15:01;;;;;;;32.58;20.40;;;8.30;88.30;;;;;;5109849;28;20061;-71
2022/03/06 10:17:28;;;;;;;25.05;18.20;;;9.00;90.30;;;;;;5110963;28;20050;-70
2022/03/06 10:22:37;;;;;;;28.35;20.00;;;8.70;85.00;;;;;;5070704;28;20406;-71
2022/03/06 10:25:16;;;;;;;27.58;19.58;;;10.10;82.10;;;;;;5069711;28;20480;-70
2022/03/06 10:30:27;;;;;;;29.40;19.33;;;10.00;82.60;;;;;;5111223;27;20404;-69
2022/03/06 10:32:54;;;;;;;26.90;19.58;;;8.50;81.80;;;;;;5109895;28;20043;-70
2022/03/06 10:35:30;;;;;;;27.30;20.48;;;8.80;84.30;;;;;;5111001;28;20482;-70
2022/03/06 10:37:56;;;;;;;27.10;19.20;;;9.30;84.60;;;;;;5092720;28;20118;-69
2022/03/06 10:40:38;;;;;;;26.13;19.05;;;9.20;78.80;;;;;;5109642;28;20066;-70
2022/03/06 10:43:25;;;;;;;27.27;19.85;;;8.90;79.20;;;;;;5110754;28;20020;-70
2022/03/06 10:46:12;;;;;;;28.73;20.08;;;9.20;79.30;;;;;;5110775;28;20524;-70
2022/03/06 10:48:39;;;;;;;26.83;19.25;;;9.80;75.50;;;;;;5110605;28;20032;-70
2022/03/06 10:51:08;;;;;;;26.35;18.70;;;8.70;79.60;;;;;;5110826;28;20385;-70
2022/03/06 10:53:34;;;;;;;26.95;19.60;;;9.30;83.20;;;;;;5109329;28;20366;-70
2022/03/06 10:56:07;;;;;;;25.45;19.17;;;9.10;78.20;;;;;;5109435;28;20035;-72
2022/03/06 10:58:35;;;;;;;22.85;17.58;;;9.10;80.10;;;;;;5109315;28;20123;-71
2022/03/06 11:01:02;;;;;;;23.25;17.63;;;8.80;76.70;;;;;;5109325;28;20067;-70
2022/03/06 11:03:31;;;;;;;22.10;17.27;;;8.20;73.50;;;;;;5110424;28;20039;-71
2022/03/06 11:05:57;;;;;;;22.67;17.55;;;8.20;74.70;;;;;;5110451;28;20049;-70
2022/03/06 11:08:24;;;;;;;25.00;17.80;;;8.20;77.70;;;;;;5110409;28;20034;-71
2022/03/06 11:10:50;;;;;;;23.50;17.02;;;8.60;76.50;;;;;;5110312;28;20023;-70
2022/03/06 11:13:15;;;;;;;22.83;16.75;;;8.40;79.50;;;;;;5109034;28;20031;-70
2022/03/06 11:15:42;;;;;;;25.48;17.75;;;8.00;75.20;;;;;;5109173;28;20051;-71
2022/03/06 11:18:07;;;;;;;21.83;16.48;;;7.70;76.80;;;;;;5110245;28;20482;-70
2022/03/06 11:20:34;;;;;;;20.80;15.77;;;7.90;79.20;;;;;;5092052;28;20030;-71
2022/03/06 11:23:20;;;;;;;25.40;16.35;;;8.80;72.70;;;;;;5108891;28;20024;-71
2022/03/06 11:26:11;;;;;;;22.00;15.93;;;9.60;71.30;;;;;;5108977;28;20427;-70
2022/03/06 11:29:17;;;;;;;21.95;16.85;;;7.50;75.80;;;;;;5108456;28;20402;-70
2022/03/06 11:31:47;;;;;;;25.52;17.45;;;7.10;81.90;;;;;;5109726;28;20062;-70
2022/03/06 11:34:23;;;;;;;22.38;15.93;;;7.30;82.20;;;;;;5109996;28;20020;-70
2022/03/06 11:36:49;;;;;;;23.52;16.65;;;7.10;82.70;;;;;;5108930;28;20119;-70
2022/03/06 11:42:51;;;;;;;20.20;15.65;;;7.50;83.30;;;;;;5111177;27;20052;-70
2022/03/06 11:45:45;;;;;;;22.98;16.80;;;7.40;82.00;;;;;;5109650;28;20038;-71
2022/03/06 11:48:22;;;;;;;22.55;16.15;;;7.20;81.20;;;;;;5109770;28;20478;-70
2022/03/06 11:51:17;;;;;;;21.98;14.48;;;7.50;80.60;;;;;;5109681;28;20111;-70
2022/03/06 11:54:05;;;;;;;21.27;14.60;;;7.30;78.70;;;;;;5110939;28;20393;-70
2022/03/06 11:59:27;;;;;;;18.98;14.07;;;7.20;77.30;;;;;;5111120;27;20655;-71
2022/03/06 12:01:57;;;;;;;21.73;14.35;;;8.00;80.70;;;;;;5093199;28;20546;-71
2022/03/06 12:04:29;;;;;;;20.08;14.20;;;7.30;84.80;;;;;;5110946;28;20024;-71
2022/03/06 12:06:57;;;;;;;21.17;14.80;;;7.00;87.00;;;;;;5110893;28;20020;-71
2022/03/06 12:09:25;;;;;;;18.40;13.48;;;6.90;88.00;;;;;;5110826;28;20523;-71
2022/03/06 12:11:55;;;;;;;17.83;13.43;;;6.60;88.30;;;;;;5110853;28;20107;-71
2022/03/06 12:14:38;;;;;;;20.38;12.98;;;6.20;86.80;;;;;;5110908;28;20424;-71
2022/03/06 12:17:11;;;;;;;18.05;12.88;;;6.20;86.90;;;;;;5110637;28;20476;-70
2022/03/06 12:22:34;;;;;;;20.73;12.77;;;6.00;88.90;;;;;;5070472;28;20131;-71
2022/03/06 12:30:44;;;;;;;21.05;12.75;;;6.30;87.60;;;;;;5111250;27;20396;-71
2022/03/06 12:33:29;;;;;;;19.58;13.02;;;6.80;88.30;;;;;;5109966;28;20028;-71
2022/03/06 12:36:18;;;;;;;16.50;12.25;;;7.70;88.90;;;;;;5111070;28;20028;-70
2022/03/06 12:38:44;;;;;;;15.73;11.93;;;7.80;82.40;;;;;;5110893;28;20056;-70
2022/03/06 12:41:10;;;;;;;15.98;11.13;;;7.30;82.40;;;;;;5111006;28;20016;-71
2022/03/06 12:43:45;;;;;;;19.33;11.20;;;6.70;87.70;;;;;;5109764;28;20032;-70
2022/03/06 12:46:12;;;;;;;14.52;10.82;;;6.00;90.20;;;;;;5109564;28;20111;-70
2022/03/06 12:48:38;;;;;;;17.20;11.27;;;5.50;92.10;;;;;;5110727;28;20031;-70
2022/03/06 12:51:03;;;;;;;18.92;12.43;;;5.50;92.20;;;;;;5109519;28;20466;-70
2022/03/06 12:53:29;;;;;;;17.33;12.30;;;5.60;92.90;;;;;;5092463;28;20024;-70
2022/03/06 12:55:57;;;;;;;18.20;11.48;;;5.80;92.90;;;;;;5110589;28;20055;-70